EPZG/IEG METAR and TAF weather

Enter ICAO airport designator
Station Type Date Time Source
EPZG METAR 2019/05/27 09:30 UTC NOAA

EPZG 270930Z 22011KT 190V260 9999 FEW048 23/11 Q1008


Station Type Date Time Source
EPZG Decoded METAR 2019/05/27 09:30 UTC NOAA

Zielona Gora, Poland (EPZG) 51-56N 015-32E 192M
May 27, 2019 - 05:30 AM EDT / 2019.05.27 0930 UTC
Wind: from the SW (220 degrees) at 13 MPH (11 KT) (direction variable):0
Visibility: greater than 7 mile(s):0
Sky conditions: mostly clear
Temperature: 73 F (23 C)
Dew Point: 51 F (11 C)
Relative Humidity: 46%
Pressure (altimeter): 29.77 in. Hg (1008 hPa)
ob: EPZG 270930Z 22011KT 190V260 9999 FEW048 23/11 Q1008
cycle: 9

Station Type Date Time Source
EPZG TAF 2012/06/28 21:49 UTC NOAA

TAF EPZG 282000Z 2821/2906 VRB02KT CAVOK
TEMPO 2823/2904 5000 BR PROB30 2900/2904 1500 BR BKN005

Example: see airport list